Terminal Aerodrome Forecast
Issued by NWS St Louis, MO

Home | Current Version | Previous Version | Text Only | Print | Product List | Glossary On
Versions: 1 2 3 4 5 6 7 8 9 10 11 12 13 14 15 16 17 18 19 20 21 22 23 24 25 26
294
FTUS43 KLSX 192341
TAFSTL
TAF
KSTL 192341Z 2000/2106 13010KT P6SM SCT250
     FM200300 15007KT P6SM SCT250
     FM200900 15006KT 3SM BR SCT010
     FM201500 14009KT P6SM SCT020 BKN080
     FM201800 16013G19KT P6SM BKN120
     FM202300 17012KT P6SM -SHRA OVC060=

USA.gov is the U.S. government's official web portal to all federal, state and local government web resources and services.